Time;durP1;ratioP1;P1;durP2;ratioP2;P2;SDS_P1;SDS_P2;PMS_P1;PMS_P2;Temp;Humidity;BMP_temperature;BMP_pressure;BME280_temperature;BME280_humidity;BME280_pressure;Samples;Min_cycle;Max_cycle;Signal;HPM_P1;HPM_P2
2021/08/19 00:00:40;;;;;;;3.47;3.17;;;;;;;24.09;46.15;95430.44;5010122;28;20472;-72
2021/08/19 00:03:06;;;;;;;4.72;3.30;;;;;;;23.90;46.16;95392.72;5009921;28;20080;-73
2021/08/19 00:05:31;;;;;;;3.90;3.60;;;;;;;23.93;46.20;95405.56;5009476;28;20046;-72
2021/08/19 00:07:56;;;;;;;4.20;3.47;;;;;;;23.91;46.41;95396.25;5007637;28;20034;-72
2021/08/19 00:10:22;;;;;;;5.55;3.42;;;;;;;23.92;46.43;95395.06;5009219;28;20057;-72
2021/08/19 00:12:47;;;;;;;3.63;3.33;;;;;;;24.11;46.70;95411.84;5011753;28;20042;-72
2021/08/19 00:15:13;;;;;;;7.95;3.80;;;;;;;24.19;46.64;95420.00;5007986;28;20034;-72
2021/08/19 00:17:39;;;;;;;7.78;3.80;;;;;;;24.04;46.51;95400.16;5009221;28;20058;-72
2021/08/19 00:20:05;;;;;;;3.90;3.42;;;;;;;24.07;46.58;95410.25;5009957;28;20050;-72
2021/08/19 00:22:31;;;;;;;4.10;3.53;;;;;;;23.92;46.51;95382.28;5008224;28;20415;-71
2021/08/19 00:24:58;;;;;;;5.50;3.60;;;;;;;24.25;46.58;95429.31;5010445;28;20026;-72
2021/08/19 00:27:23;;;;;;;4.68;3.65;;;;;;;24.05;46.49;95407.91;5007152;28;20049;-71
2021/08/19 00:29:49;;;;;;;4.05;3.53;;;;;;;24.11;46.29;95406.41;5009106;28;20132;-72
2021/08/19 00:32:14;;;;;;;4.10;3.75;;;;;;;23.98;46.37;95380.72;5007770;28;20038;-73
2021/08/19 00:34:40;;;;;;;4.25;3.85;;;;;;;23.69;46.68;95333.69;5009239;28;20038;-72
2021/08/19 00:37:05;;;;;;;5.60;3.53;;;;;;;24.02;46.74;95376.09;5010975;28;20053;-72
2021/08/19 00:39:30;;;;;;;4.30;3.90;;;;;;;24.00;46.62;95377.63;5008604;28;20038;-72
2021/08/19 00:41:57;;;;;;;4.70;3.25;;;;;;;24.03;46.66;95376.84;5008432;28;20555;-71
2021/08/19 00:44:23;;;;;;;4.47;3.85;;;;;;;24.16;46.71;95385.41;5009117;28;20050;-72
2021/08/19 00:46:48;;;;;;;4.57;3.88;;;;;;;23.83;46.87;95332.94;5008223;28;20034;-72
2021/08/19 00:49:14;;;;;;;4.25;3.90;;;;;;;24.25;46.54;95389.31;5011210;28;20036;-72
2021/08/19 00:51:41;;;;;;;4.13;3.72;;;;;;;24.24;46.53;95387.78;5009300;28;20057;-72
2021/08/19 00:54:08;;;;;;;4.70;3.95;;;;;;;24.09;46.55;95356.28;5008793;28;20048;-72
2021/08/19 00:56:38;;;;;;;5.80;4.05;;;;;;;24.09;47.01;95361.72;5008379;28;20049;-72
2021/08/19 00:59:04;;;;;;;5.90;3.92;;;;;;;24.30;46.48;95402.53;5009381;28;20132;-72
2021/08/19 01:04:52;;;;;;;5.13;4.63;;;;;;;23.95;46.92;95358.97;5007578;28;20088;-72
2021/08/19 01:07:17;;;;;;;4.82;3.95;;;;;;;24.22;46.91;95403.69;5006612;28;20109;-72
2021/08/19 01:09:44;;;;;;;4.65;4.18;;;;;;;24.25;47.20;95408.34;5010764;28;20113;-72
2021/08/19 01:12:12;;;;;;;4.75;4.43;;;;;;;24.12;47.02;95380.00;5008109;28;20570;-72
2021/08/19 01:14:39;;;;;;;4.20;3.90;;;;;;;24.15;46.89;95394.75;5008725;28;20462;-72
2021/08/19 01:17:15;;;;;;;5.25;4.13;;;;;;;23.90;46.71;95349.25;5006572;28;20042;-73
2021/08/19 01:19:44;;;;;;;4.90;4.40;;;;;;;24.00;46.73;95364.03;5007475;28;20030;-72
2021/08/19 01:22:09;;;;;;;4.60;4.20;;;;;;;23.94;46.77;95365.56;5011068;28;20026;-72
2021/08/19 01:24:35;;;;;;;6.45;4.28;;;;;;;24.22;46.44;95405.66;5008692;28;20050;-72
2021/08/19 01:27:01;;;;;;;5.22;4.57;;;;;;;23.92;46.75;95348.91;5007722;28;20435;-72
2021/08/19 01:29:26;;;;;;;4.72;4.28;;;;;;;23.91;46.96;95337.25;5006817;28;20042;-72
2021/08/19 01:31:57;;;;;;;5.32;4.82;;;;;;;24.01;46.98;95358.22;5006943;28;20065;-72
2021/08/19 01:34:23;;;;;;;5.15;4.65;;;;;;;24.27;46.69;95392.44;5007663;28;20025;-72
2021/08/19 01:36:48;;;;;;;5.80;5.30;;;;;;;24.06;46.75;95366.00;5009223;28;20535;-73
2021/08/19 01:39:14;;;;;;;5.18;4.68;;;;;;;24.09;46.57;95359.78;5008234;28;20040;-72
2021/08/19 01:41:39;;;;;;;5.43;4.93;;;;;;;24.11;46.69;95362.13;5003277;28;20373;-72
2021/08/19 01:44:05;;;;;;;5.00;4.53;;;;;;;24.02;46.94;95350.84;5008404;28;20373;-72
2021/08/19 01:46:30;;;;;;;5.22;4.72;;;;;;;23.92;46.60;95340.75;5007928;28;20084;-72
2021/08/19 01:48:55;;;;;;;5.68;5.18;;;;;;;24.00;46.85;95353.16;5009972;28;20034;-72
2021/08/19 01:51:22;;;;;;;6.20;4.90;;;;;;;24.10;46.97;95366.78;5010656;28;20038;-72
2021/08/19 01:53:51;;;;;;;6.00;4.78;;;;;;;24.38;46.74;95401.41;5011624;28;20631;-72
2021/08/19 01:56:21;;;;;;;5.78;4.82;;;;;;;24.20;46.97;95380.78;5010953;28;20038;-72
2021/08/19 01:58:47;;;;;;;5.65;4.82;;;;;;;24.19;46.84;95376.50;5011713;28;20129;-72
2021/08/19 02:01:23;;;;;;;5.38;4.88;;;;;;;24.37;47.37;95424.34;5013021;28;20040;-73
2021/08/19 02:03:50;;;;;;;5.68;5.13;;;;;;;23.81;47.06;95327.91;5012302;28;20045;-72
2021/08/19 02:06:16;;;;;;;5.63;5.00;;;;;;;23.81;46.77;95336.06;5010713;28;20049;-72
2021/08/19 02:08:41;;;;;;;5.97;5.03;;;;;;;23.97;46.86;95348.50;5011777;28;20045;-74
2021/08/19 02:11:07;;;;;;;6.13;4.85;;;;;;;23.74;46.89;95338.75;5010161;28;20046;-72
2021/08/19 02:13:33;;;;;;;5.97;4.82;;;;;;;24.32;47.26;95415.75;5010317;28;20087;-72
2021/08/19 02:15:59;;;;;;;7.07;5.35;;;;;;;24.05;47.09;95360.94;5013631;28;20076;-73
2021/08/19 02:18:24;;;;;;;5.30;4.80;;;;;;;23.93;47.01;95347.72;5011217;28;20053;-72
2021/08/19 02:20:50;;;;;;;5.20;4.68;;;;;;;24.21;46.75;95377.69;5012099;28;20038;-73
2021/08/19 02:23:15;;;;;;;5.13;4.63;;;;;;;24.18;46.75;95373.00;5011994;28;20052;-73
2021/08/19 02:25:41;;;;;;;8.13;5.00;;;;;;;24.29;46.70;95392.81;5009639;28;20041;-72
2021/08/19 02:28:06;;;;;;;5.82;5.05;;;;;;;24.42;46.74;95397.94;5011513;28;20032;-72
2021/08/19 02:30:31;;;;;;;5.65;4.90;;;;;;;24.27;46.41;95378.09;5010282;28;20138;-72
2021/08/19 02:32:57;;;;;;;6.70;5.07;;;;;;;24.19;46.42;95369.13;5010364;28;20025;-73
2021/08/19 02:35:30;;;;;;;5.50;4.45;;;;;;;24.16;46.58;95371.81;5010186;28;20053;-72
2021/08/19 02:37:59;;;;;;;6.70;5.07;;;;;;;24.05;46.49;95353.56;5011086;28;20092;-72
2021/08/19 02:40:26;;;;;;;6.93;5.60;;;;;;;24.21;46.43;95368.72;5008485;28;20484;-72
2021/08/19 02:42:51;;;;;;;5.80;4.80;;;;;;;24.21;46.23;95376.88;5012989;28;20026;-72
2021/08/19 02:45:17;;;;;;;7.38;5.65;;;;;;;24.10;46.64;95353.19;4992302;28;20054;-72
2021/08/19 02:47:42;;;;;;;5.70;5.05;;;;;;;24.08;46.58;95352.03;4991130;28;20034;-72
2021/08/19 02:50:08;;;;;;;5.78;4.88;;;;;;;24.29;46.45;95379.25;4991091;28;20053;-71
2021/08/19 02:52:34;;;;;;;6.93;4.65;;;;;;;24.05;46.37;95350.06;4989663;28;20046;-72
2021/08/19 02:55:00;;;;;;;5.97;4.85;;;;;;;24.36;46.51;95392.88;4993848;28;20497;-73
2021/08/19 02:57:25;;;;;;;5.75;4.97;;;;;;;24.33;46.33;95392.84;5000906;28;20416;-72
2021/08/19 02:59:50;;;;;;;5.43;5.03;;;;;;;24.11;46.21;95354.00;5011001;28;20129;-72
2021/08/19 03:02:16;;;;;;;6.20;5.60;;;;;;;24.44;46.16;95401.03;5010267;28;20187;-72
2021/08/19 03:04:41;;;;;;;6.07;5.20;;;;;;;24.61;45.98;95428.25;5009768;28;20038;-72
2021/08/19 03:07:09;;;;;;;6.68;5.32;;;;;;;24.45;45.72;95391.72;5012628;28;20509;-72
2021/08/19 03:09:35;;;;;;;7.85;5.07;;;;;;;24.37;45.85;95369.19;5009279;28;20038;-74
2021/08/19 03:12:00;;;;;;;5.97;4.95;;;;;;;24.25;45.50;95372.25;5008672;28;20107;-72
2021/08/19 03:14:25;;;;;;;5.70;5.15;;;;;;;24.03;45.70;95328.72;5009198;28;20077;-72
2021/08/19 03:16:51;;;;;;;6.05;5.45;;;;;;;24.23;45.71;95372.63;5010498;28;20664;-72
2021/08/19 03:19:17;;;;;;;6.32;5.55;;;;;;;23.98;45.84;95336.47;5008527;28;20607;-71
2021/08/19 03:21:43;;;;;;;7.35;6.13;;;;;;;24.37;45.65;95382.78;5013228;28;20476;-72
2021/08/19 03:24:08;;;;;;;5.95;5.35;;;;;;;23.92;45.38;95316.28;5010652;28;20050;-72
2021/08/19 03:26:34;;;;;;;7.95;5.63;;;;;;;24.24;45.55;95374.19;5010024;28;20041;-73
2021/08/19 03:28:59;;;;;;;8.38;5.45;;;;;;;24.05;45.48;95353.56;5010472;28;20061;-76
2021/08/19 03:31:25;;;;;;;6.43;5.80;;;;;;;24.06;45.70;95349.72;5009267;28;20025;-73
2021/08/19 03:33:51;;;;;;;6.38;5.72;;;;;;;24.30;45.37;95375.34;5012548;28;20047;-72
2021/08/19 03:36:17;;;;;;;9.15;5.85;;;;;;;23.93;45.52;95328.72;5008530;28;20038;-72
2021/08/19 03:38:43;;;;;;;6.10;5.22;;;;;;;23.90;45.30;95330.25;5010480;28;20038;-71
2021/08/19 03:41:08;;;;;;;5.57;5.00;;;;;;;24.00;45.50;95362.09;5010273;28;20064;-72
2021/08/19 03:43:34;;;;;;;6.45;5.72;;;;;;;23.97;45.06;95356.66;5009622;28;20049;-72
2021/08/19 03:45:59;;;;;;;6.13;5.50;;;;;;;23.69;45.12;95319.31;5011866;28;20411;-72
2021/08/19 03:48:25;;;;;;;12.00;5.85;;;;;;;24.10;45.22;95385.03;5009881;28;20054;-72
2021/08/19 03:50:50;;;;;;;6.57;5.40;;;;;;;24.01;45.06;95354.75;5008876;28;20030;-72
2021/08/19 03:53:17;;;;;;;5.97;5.15;;;;;;;24.33;45.25;95407.22;5010044;28;20054;-72
2021/08/19 03:55:42;;;;;;;5.63;5.13;;;;;;;23.91;44.98;95350.06;5009648;28;20038;-72
2021/08/19 03:58:08;;;;;;;5.65;5.15;;;;;;;23.95;44.91;95350.81;5010164;28;20433;-72
2021/08/19 04:00:33;;;;;;;6.00;5.50;;;;;;;24.25;44.99;95402.13;5009548;28;20080;-71
2021/08/19 04:02:59;;;;;;;5.70;5.20;;;;;;;24.08;45.17;95398.22;5010330;28;20034;-71
2021/08/19 04:05:24;;;;;;;6.18;5.45;;;;;;;23.59;45.09;95343.31;5007065;28;20088;-71
2021/08/19 04:07:50;;;;;;;6.03;5.50;;;;;;;23.48;45.42;95368.88;5008333;28;20450;-70
2021/08/19 04:10:15;;;;;;;7.20;5.45;;;;;;;23.30;45.04;95334.28;5008440;28;20045;-70
2021/08/19 04:12:41;;;;;;;7.80;5.55;;;;;;;23.52;45.48;95366.97;5010601;28;20102;-71
2021/08/19 04:15:07;;;;;;;6.65;5.38;;;;;;;23.23;46.24;95396.66;5009424;28;20096;-70
2021/08/19 04:17:33;;;;;;;6.82;5.85;;;;;;;22.29;47.88;95366.50;5008602;28;20053;-70
2021/08/19 04:19:58;;;;;;;5.65;5.05;;;;;;;22.95;46.65;95358.53;5006567;28;20042;-71
2021/08/19 04:22:24;;;;;;;7.22;5.78;;;;;;;23.42;46.10;95416.56;5009720;28;20026;-71
2021/08/19 04:24:49;;;;;;;6.70;5.85;;;;;;;22.44;47.15;95368.19;5011540;28;20416;-71
2021/08/19 04:27:14;;;;;;;7.32;6.22;;;;;;;23.51;46.56;95431.34;5006808;28;20042;-71
2021/08/19 04:29:40;;;;;;;5.60;4.88;;;;;;;23.05;46.74;95385.72;5009077;28;20078;-71
2021/08/19 04:32:06;;;;;;;6.65;5.20;;;;;;;23.12;46.49;95351.63;5009282;28;20413;-70
2021/08/19 04:34:31;;;;;;;6.80;5.53;;;;;;;23.66;46.13;95407.00;5007776;28;20026;-72
2021/08/19 04:36:57;;;;;;;6.45;5.40;;;;;;;23.65;45.71;95378.28;5011144;28;20113;-73
2021/08/19 04:39:23;;;;;;;5.97;5.40;;;;;;;23.60;45.23;95366.63;5009313;28;20054;-71
2021/08/19 04:41:50;;;;;;;8.13;6.15;;;;;;;22.73;47.16;95392.81;5008496;28;20034;-71
2021/08/19 04:44:16;;;;;;;6.45;5.82;;;;;;;22.79;46.85;95356.84;5008853;28;20038;-70
2021/08/19 04:46:41;;;;;;;6.85;5.47;;;;;;;23.42;46.15;95401.03;5008769;28;20595;-72
2021/08/19 04:49:06;;;;;;;7.45;5.28;;;;;;;23.37;46.04;95392.47;5010057;28;20077;-70
2021/08/19 04:51:36;;;;;;;8.23;5.82;;;;;;;23.39;45.74;95357.59;5009488;28;20070;-71
2021/08/19 04:54:02;;;;;;;6.70;5.65;;;;;;;23.69;45.74;95376.34;5009295;28;20083;-71
2021/08/19 04:56:30;;;;;;;8.43;7.13;;;;;;;23.60;45.31;95331.31;5009077;28;20037;-71
2021/08/19 04:58:57;;;;;;;8.68;5.45;;;;;;;23.81;45.34;95346.94;5007894;28;20050;-73
2021/08/19 05:01:22;;;;;;;6.78;5.30;;;;;;;23.96;45.29;95361.31;5007805;28;20133;-71
2021/08/19 05:03:48;;;;;;;7.07;5.80;;;;;;;23.93;44.65;95351.22;4993200;28;20018;-73
2021/08/19 05:06:13;;;;;;;5.70;5.10;;;;;;;24.35;44.69;95407.63;5006560;28;20034;-72
2021/08/19 05:08:38;;;;;;;5.72;5.15;;;;;;;24.23;44.69;95397.09;4991278;28;20081;-74
2021/08/19 05:11:04;;;;;;;8.07;5.53;;;;;;;24.12;44.71;95372.63;4991644;28;20046;-73
2021/08/19 05:13:31;;;;;;;6.30;5.60;;;;;;;24.48;44.60;95420.88;5009055;28;20022;-73
2021/08/19 05:15:56;;;;;;;10.45;6.00;;;;;;;24.52;44.88;95418.94;5012421;28;20131;-81
2021/08/19 05:18:22;;;;;;;5.85;5.25;;;;;;;24.08;44.87;95423.47;5006513;28;20172;-76
2021/08/19 05:20:47;;;;;;;7.20;5.30;;;;;;;24.32;45.37;95426.63;5007249;28;20042;-67
2021/08/19 05:23:13;;;;;;;5.97;4.85;;;;;;;24.51;44.96;95420.06;5008714;28;20436;-71
2021/08/19 05:25:38;;;;;;;7.13;6.15;;;;;;;24.59;44.42;95406.09;5011370;28;20121;-76
2021/08/19 05:28:04;;;;;;;7.25;5.05;;;;;;;24.79;44.39;95419.34;5015231;28;20108;-76
2021/08/19 05:30:29;;;;;;;5.97;5.35;;;;;;;24.69;43.91;95422.81;5013298;28;20038;-77
2021/08/19 05:32:55;;;;;;;7.53;5.82;;;;;;;24.58;44.36;95412.72;5013568;28;20034;-75
2021/08/19 05:35:21;;;;;;;7.30;5.40;;;;;;;24.43;44.13;95399.50;5012005;28;20381;-70
2021/08/19 05:37:47;;;;;;;9.50;5.78;;;;;;;24.56;43.93;95387.84;5010489;28;20096;-70
2021/08/19 05:40:12;;;;;;;6.03;5.40;;;;;;;24.81;44.05;95419.72;5014871;28;20387;-69
2021/08/19 05:42:38;;;;;;;7.13;6.05;;;;;;;24.73;43.83;95391.75;5008548;28;20650;-70
2021/08/19 05:45:04;;;;;;;6.03;5.18;;;;;;;25.11;43.73;95430.22;5012081;28;20484;-71
2021/08/19 05:47:29;;;;;;;6.03;5.10;;;;;;;25.11;43.27;95414.66;5010289;28;20034;-72
2021/08/19 05:49:55;;;;;;;5.43;4.88;;;;;;;25.10;43.08;95398.72;5011314;28;20049;-71
2021/08/19 05:52:20;;;;;;;6.25;5.20;;;;;;;25.17;43.08;95382.38;5011544;28;20029;-72
2021/08/19 05:54:47;;;;;;;6.60;5.38;;;;;;;25.26;43.06;95401.81;5014622;28;20046;-71
2021/08/19 05:57:12;;;;;;;5.53;5.00;;;;;;;25.52;42.67;95414.19;5011558;28;20458;-73
2021/08/19 05:59:38;;;;;;;6.95;5.57;;;;;;;25.25;42.82;95367.59;5006163;28;20129;-70
2021/08/19 06:02:04;;;;;;;7.93;5.32;;;;;;;25.72;42.50;95422.69;4992243;28;20389;-76
2021/08/19 06:04:29;;;;;;;5.50;5.00;;;;;;;25.86;42.14;95432.81;4990009;28;20026;-71
2021/08/19 06:06:54;;;;;;;5.95;4.85;;;;;;;25.49;42.01;95365.97;4993956;28;20026;-68
2021/08/19 06:09:20;;;;;;;6.15;4.88;;;;;;;25.66;41.66;95364.34;4991527;28;20060;-71
2021/08/19 06:11:45;;;;;;;7.93;4.70;;;;;;;26.19;41.73;95445.88;4991165;28;20035;-71
2021/08/19 06:14:11;;;;;;;9.27;5.18;;;;;;;26.10;41.31;95423.75;5004540;28;20178;-71
2021/08/19 06:16:36;;;;;;;5.28;4.53;;;;;;;26.24;41.42;95427.56;5008114;28;20045;-71
2021/08/19 06:19:02;;;;;;;7.05;5.55;;;;;;;26.12;40.82;95423.34;5011127;28;20030;-71
2021/08/19 06:21:28;;;;;;;7.63;5.10;;;;;;;26.35;40.86;95441.91;5011693;28;20041;-71
2021/08/19 06:23:53;;;;;;;5.55;4.50;;;;;;;25.58;41.10;95400.94;4993882;28;20038;-71
2021/08/19 06:26:19;;;;;;;5.50;4.95;;;;;;;25.73;41.29;95413.34;4993698;28;20038;-71
2021/08/19 06:28:44;;;;;;;5.05;4.55;;;;;;;25.76;41.17;95409.88;5010952;28;20045;-71
2021/08/19 06:31:09;;;;;;;5.30;4.85;;;;;;;25.31;42.04;95425.16;5013763;28;20026;-71
2021/08/19 06:33:35;;;;;;;5.65;5.03;;;;;;;24.60;43.09;95398.72;5011397;28;20111;-72
2021/08/19 06:36:00;;;;;;;5.60;4.18;;;;;;;25.02;42.74;95408.81;5009797;28;20428;-71
2021/08/19 06:38:25;;;;;;;7.10;4.93;;;;;;;25.48;42.34;95382.69;5011643;28;20041;-71
2021/08/19 06:40:51;;;;;;;5.30;4.80;;;;;;;25.81;41.84;95379.50;5011623;28;20038;-71
2021/08/19 06:43:16;;;;;;;6.43;4.88;;;;;;;26.43;40.89;95446.19;5010553;28;20030;-72
2021/08/19 06:45:42;;;;;;;5.75;4.55;;;;;;;26.40;41.22;95447.72;5013052;28;20022;-70
2021/08/19 06:48:07;;;;;;;7.45;4.78;;;;;;;25.33;41.70;95385.44;5011305;28;20046;-72
2021/08/19 06:50:32;;;;;;;7.78;4.95;;;;;;;25.67;42.04;95445.66;5009222;28;20798;-69
2021/08/19 06:52:58;;;;;;;7.10;5.20;;;;;;;25.49;42.32;95444.97;5009231;28;20488;-70
2021/08/19 06:55:24;;;;;;;5.22;4.72;;;;;;;24.88;43.55;95434.09;5011104;28;20431;-69
2021/08/19 06:57:49;;;;;;;5.75;4.50;;;;;;;24.67;43.44;95382.41;5009445;28;20025;-67
2021/08/19 07:00:15;;;;;;;5.90;5.18;;;;;;;24.02;44.51;95365.22;5011001;28;20120;-70
2021/08/19 07:02:40;;;;;;;7.10;4.68;;;;;;;24.93;43.35;95396.75;5011246;28;20406;-72
2021/08/19 07:05:07;;;;;;;5.22;4.70;;;;;;;24.45;44.67;95416.19;5011066;28;20089;-69
2021/08/19 07:07:33;;;;;;;6.63;4.85;;;;;;;25.45;43.20;95448.84;5010710;28;20480;-69
2021/08/19 07:10:04;;;;;;;6.68;4.72;;;;;;;23.85;46.74;95455.56;5012762;28;20045;-70
2021/08/19 07:12:30;;;;;;;8.40;5.00;;;;;;;24.04;46.71;95457.22;5008703;28;20034;-70
2021/08/19 07:14:56;;;;;;;6.53;5.28;;;;;;;24.87;44.81;95432.53;5010370;28;20108;-69
2021/08/19 07:17:21;;;;;;;4.95;4.22;;;;;;;24.80;44.43;95420.88;5009638;28;20400;-70
2021/08/19 07:19:47;;;;;;;4.55;4.05;;;;;;;25.40;43.49;95422.78;5009085;28;20065;-71
2021/08/19 07:22:12;;;;;;;6.20;4.75;;;;;;;25.03;44.03;95431.34;5012727;28;20113;-71
2021/08/19 07:24:38;;;;;;;6.95;4.97;;;;;;;24.41;45.12;95464.34;5010578;28;20064;-71
2021/08/19 07:27:04;;;;;;;7.13;5.90;;;;;;;22.64;49.40;95422.97;5008710;28;20141;-72
2021/08/19 07:29:29;;;;;;;7.03;4.70;;;;;;;23.26;49.05;95444.75;5009992;28;20081;-71
2021/08/19 07:31:55;;;;;;;5.00;4.60;;;;;;;23.78;47.42;95426.44;5008828;28;20108;-71
2021/08/19 07:34:20;;;;;;;5.35;4.85;;;;;;;24.81;44.21;95381.63;5008936;28;20041;-70
2021/08/19 07:36:46;;;;;;;5.55;4.55;;;;;;;25.09;43.85;95435.28;5012202;28;20511;-71
2021/08/19 07:39:11;;;;;;;6.05;4.38;;;;;;;24.74;44.36;95403.41;5010301;28;20052;-71
2021/08/19 07:41:36;;;;;;;5.75;4.65;;;;;;;25.82;43.05;95453.84;5010166;28;20138;-71
2021/08/19 07:44:02;;;;;;;4.30;3.90;;;;;;;24.61;45.15;95441.84;5009883;28;20052;-72
2021/08/19 07:46:28;;;;;;;4.53;4.07;;;;;;;23.60;47.63;95420.16;5009727;28;20072;-70
2021/08/19 07:48:56;;;;;;;5.63;4.90;;;;;;;23.67;47.80;95428.34;5011983;28;20058;-74
2021/08/19 07:51:22;;;;;;;3.97;3.67;;;;;;;24.31;46.31;95422.34;5010081;28;20065;-69
2021/08/19 07:53:48;;;;;;;5.25;4.00;;;;;;;24.54;45.73;95450.00;5009908;28;20117;-71
2021/08/19 07:56:13;;;;;;;5.78;3.95;;;;;;;25.82;43.95;95448.38;5008705;28;20468;-72
2021/08/19 07:58:39;;;;;;;4.40;4.00;;;;;;;24.06;46.37;95386.97;5007939;28;20088;-71
2021/08/19 08:01:04;;;;;;;4.78;4.13;;;;;;;24.27;46.13;95435.94;5011970;28;20120;-71
2021/08/19 08:03:29;;;;;;;9.23;4.25;;;;;;;24.85;44.26;95425.94;5009788;28;20492;-71
2021/08/19 08:05:55;;;;;;;3.78;3.47;;;;;;;23.33;47.92;95450.22;5008340;28;20069;-70
2021/08/19 08:08:20;;;;;;;6.15;4.20;;;;;;;22.69;49.12;95422.63;5009021;28;20041;-70
2021/08/19 08:10:46;;;;;;;3.97;3.20;;;;;;;23.78;47.00;95437.31;5008101;28;20113;-71
2021/08/19 08:13:12;;;;;;;4.93;3.35;;;;;;;24.49;45.83;95455.81;5011375;28;20047;-71
2021/08/19 08:15:40;;;;;;;3.90;3.42;;;;;;;24.21;44.93;95426.63;5007437;28;20070;-72
2021/08/19 08:18:11;;;;;;;4.13;3.00;;;;;;;24.32;45.07;95411.09;5007019;28;20046;-72
2021/08/19 08:20:36;;;;;;;3.07;2.87;;;;;;;25.60;42.47;95455.81;5008356;28;20140;-72
2021/08/19 08:26:25;;;;;;;4.50;3.15;;;;;;;26.25;41.18;95470.78;5005703;28;20115;-72
2021/08/19 08:28:51;;;;;;;4.53;2.88;;;;;;;24.33;43.95;95426.25;5008715;28;20067;-67
2021/08/19 08:31:17;;;;;;;3.42;2.42;;;;;;;23.90;45.88;95459.88;5008216;28;20026;-75
2021/08/19 08:33:45;;;;;;;4.13;3.25;;;;;;;24.67;44.48;95474.91;5011173;28;20125;-73
2021/08/19 08:36:10;;;;;;;3.08;2.72;;;;;;;26.33;41.56;95438.81;5009235;28;20125;-73
2021/08/19 08:38:35;;;;;;;3.10;2.90;;;;;;;25.08;42.58;95464.47;5009108;28;20591;-73
2021/08/19 08:41:01;;;;;;;2.70;2.38;;;;;;;24.13;45.15;95452.19;4991481;28;20045;-72
2021/08/19 08:43:27;;;;;;;3.42;2.70;;;;;;;24.72;43.51;95416.59;5008582;28;20044;-72
2021/08/19 08:45:54;;;;;;;2.47;2.20;;;;;;;25.95;41.14;95433.16;5009394;28;20060;-72
2021/08/19 08:48:22;;;;;;;2.63;2.40;;;;;;;27.63;38.35;95435.44;5008777;28;20042;-73
2021/08/19 08:50:51;;;;;;;2.25;2.05;;;;;;;29.13;35.94;95468.31;5009286;28;20411;-73
2021/08/19 08:53:17;;;;;;;2.47;2.33;;;;;;;27.76;37.14;95460.34;5007509;28;20674;-73
2021/08/19 08:55:44;;;;;;;2.10;1.90;;;;;;;28.65;35.65;95464.69;5008399;28;20408;-73
2021/08/19 08:58:10;;;;;;;2.88;2.03;;;;;;;29.56;34.79;95475.81;5010654;28;20128;-73
2021/08/19 09:00:37;;;;;;;2.95;1.98;;;;;;;29.38;34.00;95440.47;5007890;28;20042;-73
2021/08/19 09:03:03;;;;;;;2.58;2.10;;;;;;;30.30;33.45;95437.94;5008709;28;20042;-72
2021/08/19 09:05:29;;;;;;;1.75;1.65;;;;;;;30.62;32.82;95474.91;5008727;28;20046;-72
2021/08/19 09:08:01;;;;;;;2.00;1.90;;;;;;;28.70;33.95;95450.53;5008404;28;20420;-72
2021/08/19 09:10:32;;;;;;;2.13;2.00;;;;;;;28.05;35.79;95455.31;5009217;28;20029;-70
2021/08/19 09:13:09;;;;;;;2.65;2.08;;;;;;;27.17;37.97;95479.59;5010693;28;20030;-75
2021/08/19 09:15:34;;;;;;;1.52;1.42;;;;;;;27.13;36.58;95440.63;5000437;28;20516;-69
2021/08/19 09:18:02;;;;;;;3.97;1.33;;;;;;;26.59;37.85;95481.16;5009164;28;20077;-73
2021/08/19 09:20:41;;;;;;;10.40;2.67;;;;;;;28.33;35.88;95478.81;5006526;28;20043;-68
2021/08/19 09:23:12;;;;;;;27.55;12.27;;;;;;;29.33;34.05;95466.41;5008044;28;20038;-66
2021/08/19 09:25:39;;;;;;;22.60;8.67;;;;;;;29.74;32.90;95470.78;5008062;28;20127;-69
2021/08/19 09:28:22;;;;;;;3.10;1.83;;;;;;;30.05;32.83;95474.13;5009818;28;20026;-68
2021/08/19 09:30:58;;;;;;;2.58;2.13;;;;;;;29.03;33.30;95477.47;5008695;28;20038;-66
2021/08/19 09:33:29;;;;;;;1.20;1.10;;;;;;;29.05;33.36;95478.59;5007192;28;20041;-68
2021/08/19 09:35:59;;;;;;;;;;;;;;;27.56;36.33;95483.94;5008451;28;20138;-69
2021/08/19 09:38:26;;;;;;;1.40;1.30;;;;;;;27.05;36.56;95472.66;5007187;28;19945;-69
2021/08/19 09:41:13;;;;;;;2.17;1.38;;;;;;;26.71;37.27;95464.31;5008351;28;20122;-66
2021/08/19 09:43:41;;;;;;;1.98;1.30;;;;;;;26.24;38.38;95482.09;5008397;28;20041;-70
2021/08/19 09:46:07;;;;;;;1.52;1.40;;;;;;;26.04;38.65;95482.56;5008692;28;20030;-69
2021/08/19 09:48:34;;;;;;;1.35;1.25;;;;;;;26.47;37.98;95479.69;5008611;28;20120;-71
2021/08/19 09:51:19;;;;;;;2.67;1.27;;;;;;;27.17;36.20;95476.88;5008477;28;20037;-68
2021/08/19 09:53:47;;;;;;;1.40;1.30;;;;;;;26.61;37.13;95479.56;5008526;28;20035;-70
2021/08/19 09:56:13;;;;;;;0.85;0.85;;;;;;;26.78;36.86;95477.91;5008187;28;20042;-69
2021/08/19 09:58:40;;;;;;;1.10;1.00;;;;;;;27.47;34.95;95479.72;5008410;28;20038;-71
2021/08/19 10:01:06;;;;;;;1.75;0.90;;;;;;;26.91;35.63;95473.53;5009998;28;20060;-70
2021/08/19 10:03:31;;;;;;;1.25;1.10;;;;;;;27.30;35.49;95469.72;5008477;28;20074;-71
2021/08/19 10:05:56;;;;;;;1.65;0.90;;;;;;;28.03;33.91;95470.56;5006764;28;20793;-72
2021/08/19 10:08:23;;;;;;;1.02;0.93;;;;;;;28.73;31.85;95454.41;5008155;28;20077;-74
2021/08/19 10:10:55;;;;;;;1.17;1.10;;;;;;;28.29;32.78;95469.84;5008482;28;20407;-71
2021/08/19 10:13:21;;;;;;;1.13;1.02;;;;;;;27.98;34.14;95475.28;5011286;28;20118;-73
2021/08/19 10:15:49;;;;;;;2.35;1.20;;;;;;;26.47;35.75;95476.94;5013862;28;20495;-77
2021/08/19 10:18:22;;;;;;;1.65;1.40;;;;;;;25.59;37.76;95474.13;5012381;28;20116;-75
2021/08/19 10:20:55;;;;;;;2.53;1.20;;;;;;;27.45;35.18;95462.19;5010510;28;20061;-68
2021/08/19 10:23:23;;;;;;;2.05;0.93;;;;;;;27.32;35.86;95461.13;5011819;28;20488;-69
2021/08/19 10:26:04;;;;;;;1.98;1.30;;;;;;;26.20;35.85;95463.00;5011526;28;20077;-69
2021/08/19 10:28:46;;;;;;;1.23;1.10;;;;;;;28.05;33.29;95459.97;5011736;28;20038;-73
2021/08/19 10:31:12;;;;;;;1.23;1.13;;;;;;;29.16;32.11;95451.78;5013499;28;20558;-71
2021/08/19 10:33:37;;;;;;;2.05;1.13;;;;;;;29.73;31.57;95448.06;5011913;28;20037;-72
2021/08/19 10:36:09;;;;;;;1.30;1.20;;;;;;;30.21;30.89;95444.00;5010192;28;20034;-71
2021/08/19 10:38:34;;;;;;;1.58;1.45;;;;;;;30.49;29.87;95439.88;5012253;28;20112;-68
2021/08/19 10:41:00;;;;;;;1.20;1.10;;;;;;;30.76;29.65;95436.16;5011631;28;20488;-76
2021/08/19 10:43:28;;;;;;;2.63;1.48;;;;;;;30.96;30.06;95441.56;5011561;28;20037;-74
2021/08/19 10:46:07;;;;;;;1.38;1.27;;;;;;;28.58;31.94;95448.38;5013059;28;20033;-74
2021/08/19 10:48:53;;;;;;;2.05;1.20;;;;;;;27.70;33.46;95440.06;5011508;28;20508;-74
2021/08/19 10:51:19;;;;;;;1.05;1.05;;;;;;;28.01;33.10;95434.66;5011282;28;20038;-74
2021/08/19 10:53:45;;;;;;;1.60;1.35;;;;;;;26.65;35.75;95438.63;5011539;28;20129;-75
2021/08/19 10:56:11;;;;;;;1.48;1.35;;;;;;;27.59;34.06;95445.66;5011225;28;20034;-74
2021/08/19 10:58:38;;;;;;;1.90;1.30;;;;;;;27.14;34.99;95436.72;5010933;28;20084;-73
2021/08/19 11:01:13;;;;;;;1.25;1.17;;;;;;;28.36;32.84;95442.44;5008706;28;20029;-73
2021/08/19 11:03:38;;;;;;;1.42;1.33;;;;;;;29.42;32.21;95438.44;5011321;28;20404;-73
2021/08/19 11:06:05;;;;;;;2.85;1.50;;;;;;;30.27;30.97;95434.09;5011044;28;20117;-76
2021/08/19 11:08:43;;;;;;;1.38;1.27;;;;;;;30.79;29.36;95424.31;5010853;28;20133;-70
2021/08/19 11:11:11;;;;;;;2.78;1.27;;;;;;;31.44;29.24;95418.03;5010842;28;20556;-73
2021/08/19 11:13:36;;;;;;;1.20;1.10;;;;;;;31.82;28.41;95429.97;5009788;28;20038;-71
2021/08/19 11:16:08;;;;;;;2.35;1.52;;;;;;;32.19;27.98;95413.22;5012008;28;20068;-71
2021/08/19 11:18:34;;;;;;;1.60;1.50;;;;;;;30.47;28.56;95411.31;5009530;28;20049;-71
2021/08/19 11:21:03;;;;;;;1.75;1.60;;;;;;;30.30;29.07;95421.47;5011067;28;20030;-70
2021/08/19 11:23:34;;;;;;;2.58;1.70;;;;;;;31.09;28.63;95416.94;5010316;28;20125;-70
2021/08/19 11:26:06;;;;;;;2.35;1.60;;;;;;;30.71;28.95;95431.16;5010549;28;20049;-70
2021/08/19 11:28:50;;;;;;;1.60;1.33;;;;;;;29.71;30.56;95403.09;5010137;28;20029;-71
2021/08/19 11:31:21;;;;;;;1.20;1.20;;;;;;;30.54;29.80;95394.66;5002155;28;20435;-70
2021/08/19 11:33:56;;;;;;;1.83;1.70;;;;;;;31.15;29.10;95415.97;5012472;28;20029;-70
2021/08/19 11:36:23;;;;;;;1.60;1.50;;;;;;;29.89;30.62;95417.22;5010176;28;20030;-70
2021/08/19 11:39:01;;;;;;;1.73;1.58;;;;;;;29.20;31.74;95411.44;5010238;28;20111;-72